LIC weather

Limon Municipal Airport
Limon, Colorado, United States

Public forecast

Using degrees Fahrenheit for public forecast. Weather courtesy of forecast.io.

Current aviation weather report (METAR) for Limon Municipal Airport

Retrieved 2019/11/18 01:55 UTC (35 minutes ago):

KLIC 180155Z AUTO 36004KT 10SM CLR 01/M04 A3004 RMK AO2 SLP199 T00061039

Closest aviation forecast (TAF) to Limon Municipal Airport

Closest forecast is City of Colorado Springs Municipal Airport, 55.9 nm (103.5 km) WSW. Retrieved 2019-11-18 00:22 UTC (2 hours ago):

TAF KCOS 172320Z 1800/1824 18007KT P6SM SCT080 BKN150 FM180300 33008KT P6SM SCT150 BKN200 FM181100 36007KT P6SM FEW130 BKN200 FM181800 16008KT P6SM FEW200